PWSweather.com
Personal Weather Stations
Station Observations
PWSLORIS
The Farm At Fox Bay, Loris, SC 29569

The Farm At Fox BayLoris, SC 29569

Lat: 34.067097, Lon: -78.86907

Elevation: 108

Station Type: Davis Vantage Pro2 with 24 hr. FARS and solar

http://www.lorisweather.com

Latest ConditionsUpdated 1:30:01 PM EDT Saturday, Oct 21, 2017
Currently Today's Max Today's Min Today's Average
Temperature 77.6°F25.3°C 77.9°F25.5°C 50.4°F10.2°C 59.1°F15.1°C
Dew Point 56.9°F13.8°C 62.9°F17.2°C 49.9°F9.9°C 54.9°F12.7°C
Winds 2.3 mph N3.7 kmh N 2.3 mph E3.7 kmh E - 0.2 mph 0.3 kmh
Wind Gusts 3.5 mph5.6 kmh 4.6 mph7.4 kmh - -
Humidity 49% 98% 49% 88%
Pressure 30.29 in1025.7 mb 30.32 in1026.8 mb 30.22 in1023.4 mb -
Precipitation - 0.01 in0.3 mm - -
Hour Temp Dew Point Humidity Winds Wind Gusts Pressure Precip Precip Rate Daily Precip Total
01:30 PM 77.6°F25.3°C 56.9°F13.8°C 49% 2.3 mph N3.7 kmh N 3.5 mph5.6 kmh 30.29 in1025.7 mb - 0.00 in0.0 mm 0.01 in0.3 mm
01:15 PM 77.9°F25.5°C 59.9°F15.5°C 54% 1.2 mph E1.9 kmh E 2.3 mph3.7 kmh 30.29 in1025.7 mb - 0.00 in0.0 mm 0.01 in0.3 mm
01:00 PM 76.2°F24.6°C 59.4°F15.2°C 56% Calm Calm 3.5 mph5.6 kmh 30.30 in1026.1 mb - 0.00 in0.0 mm 0.01 in0.3 mm
12:45 PM 76.2°F24.6°C 59.9°F15.5°C 57% Calm Calm -- 30.30 in1026.1 mb - 0.00 in0.0 mm 0.01 in0.3 mm
12:30 PM 75.7°F24.3°C 57.9°F14.4°C 54% Calm Calm 1.2 mph1.9 kmh 30.31 in1026.4 mb - 0.00 in0.0 mm 0.01 in0.3 mm
12:15 PM 75.3°F24.1°C 59.5°F15.3°C 58% Calm Calm -- 30.31 in1026.4 mb - 0.00 in0.0 mm 0.01 in0.3 mm
12:00 PM 74.8°F23.8°C 60.4°F15.8°C 61% 2.3 mph ESE3.7 kmh ESE 4.6 mph7.4 kmh 30.31 in1026.4 mb - 0.00 in0.0 mm 0.01 in0.3 mm
11:45 AM 74.5°F23.6°C 61.1°F16.2°C 63% 1.2 mph SE1.9 kmh SE 2.3 mph3.7 kmh 30.32 in1026.8 mb - 0.00 in0.0 mm 0.01 in0.3 mm
11:30 AM 74.5°F23.6°C 61.1°F16.2°C 63% 2.3 mph SE3.7 kmh SE 4.6 mph7.4 kmh 30.31 in1026.4 mb - 0.00 in0.0 mm 0.01 in0.3 mm
11:15 AM 73.4°F23.0°C 60.5°F15.8°C 64% Calm Calm -- 30.31 in1026.4 mb - 0.00 in0.0 mm 0.01 in0.3 mm
11:00 AM 72.4°F22.4°C 62.9°F17.2°C 72% Calm Calm -- 30.31 in1026.4 mb - 0.00 in0.0 mm 0.01 in0.3 mm
10:45 AM 71.8°F22.1°C 62.7°F17.1°C 73% 2.3 mph E3.7 kmh E 3.5 mph5.6 kmh 30.31 in1026.4 mb - 0.00 in0.0 mm 0.01 in0.3 mm
10:30 AM 70.7°F21.5°C 62.3°F16.8°C 75% Calm Calm -- 30.31 in1026.4 mb - 0.00 in0.0 mm 0.01 in0.3 mm
10:15 AM 69.2°F20.7°C 61.7°F16.5°C 77% Calm Calm -- 30.32 in1026.8 mb - 0.00 in0.0 mm 0.01 in0.3 mm
10:00 AM 68.1°F20.1°C 61.7°F16.5°C 80% Calm Calm -- 30.31 in1026.4 mb - 0.00 in0.0 mm 0.01 in0.3 mm
09:45 AM 66.3°F19.1°C 62.4°F16.9°C 87% Calm Calm -- 30.32 in1026.8 mb - 0.00 in0.0 mm 0.01 in0.3 mm
09:30 AM 63.4°F17.4°C 62.2°F16.8°C 96% Calm Calm -- 30.31 in1026.4 mb - 0.00 in0.0 mm 0.01 in0.3 mm
09:15 AM 61.1°F16.2°C 60.5°F15.8°C 98% Calm Calm -- 30.31 in1026.4 mb - 0.00 in0.0 mm 0.01 in0.3 mm
09:00 AM 58.6°F14.8°C 58.1°F14.5°C 98% Calm Calm -- 30.30 in1026.1 mb - 0.00 in0.0 mm 0.01 in0.3 mm
08:45 AM 56.0°F13.3°C 55.4°F13.0°C 98% Calm Calm -- 30.29 in1025.7 mb - 0.00 in0.0 mm 0.01 in0.3 mm
08:30 AM 53.4°F11.9°C 52.9°F11.6°C 98% Calm Calm -- 30.29 in1025.7 mb - 0.00 in0.0 mm 0.01 in0.3 mm
08:15 AM 50.8°F10.4°C 50.2°F10.1°C 98% Calm Calm -- 30.28 in1025.4 mb - 0.00 in0.0 mm 0.01 in0.3 mm
08:00 AM 50.4°F10.2°C 49.9°F9.9°C 98% Calm Calm -- 30.28 in1025.4 mb - 0.00 in0.0 mm 0.01 in0.3 mm
07:45 AM 50.4°F10.2°C 49.9°F9.9°C 98% Calm Calm -- 30.27 in1025.1 mb - 0.00 in0.0 mm 0.01 in0.3 mm
07:30 AM 50.5°F10.3°C 50.0°F10.0°C 98% Calm Calm -- 30.27 in1025.1 mb - 0.00 in0.0 mm 0.01 in0.3 mm
07:15 AM 50.6°F10.3°C 50.1°F10.1°C 98% Calm Calm -- 30.27 in1025.1 mb - 0.01 in0.3 mm 0.01 in0.3 mm
07:00 AM 50.7°F10.4°C 49.9°F9.9°C 97% Calm Calm -- 30.26 in1024.7 mb - 0.00 in0.0 mm 0.00 in0.0 mm
06:45 AM 50.8°F10.4°C 50.0°F10.0°C 97% Calm Calm -- 30.26 in1024.7 mb - 0.00 in0.0 mm 0.00 in0.0 mm
06:30 AM 50.9°F10.5°C 50.4°F10.2°C 98% Calm Calm -- 30.26 in1024.7 mb - 0.00 in0.0 mm 0.00 in0.0 mm
06:15 AM 51.0°F10.6°C 50.5°F10.3°C 98% Calm Calm -- 30.25 in1024.4 mb - 0.00 in0.0 mm 0.00 in0.0 mm
06:00 AM 51.0°F10.6°C 50.5°F10.3°C 98% Calm Calm -- 30.25 in1024.4 mb - 0.00 in0.0 mm 0.00 in0.0 mm
05:45 AM 51.1°F10.6°C 50.6°F10.3°C 98% Calm Calm -- 30.24 in1024.0 mb - 0.00 in0.0 mm 0.00 in0.0 mm
05:30 AM 51.1°F10.6°C 50.6°F10.3°C 98% Calm Calm -- 30.24 in1024.0 mb - 0.00 in0.0 mm 0.00 in0.0 mm
05:15 AM 51.2°F10.7°C 50.4°F10.2°C 97% Calm Calm -- 30.23 in1023.7 mb - 0.00 in0.0 mm 0.00 in0.0 mm
05:00 AM 51.4°F10.8°C 50.6°F10.3°C 97% Calm Calm -- 30.23 in1023.7 mb - 0.00 in0.0 mm 0.00 in0.0 mm
04:45 AM 51.7°F10.9°C 50.9°F10.5°C 97% Calm Calm -- 30.23 in1023.7 mb - 0.00 in0.0 mm 0.00 in0.0 mm
04:30 AM 51.8°F11.0°C 51.0°F10.6°C 97% Calm Calm -- 30.23 in1023.7 mb - 0.00 in0.0 mm 0.00 in0.0 mm
04:15 AM 52.0°F11.1°C 51.2°F10.7°C 97% Calm Calm -- 30.22 in1023.4 mb - 0.00 in0.0 mm 0.00 in0.0 mm
04:00 AM 52.2°F11.2°C 51.4°F10.8°C 97% Calm Calm -- 30.22 in1023.4 mb - 0.00 in0.0 mm 0.00 in0.0 mm
03:45 AM 52.4°F11.3°C 51.6°F10.9°C 97% Calm Calm -- 30.23 in1023.7 mb - 0.00 in0.0 mm 0.00 in0.0 mm
03:30 AM 52.7°F11.5°C 51.9°F11.1°C 97% Calm Calm -- 30.23 in1023.7 mb - 0.00 in0.0 mm 0.00 in0.0 mm
03:15 AM 52.9°F11.6°C 52.1°F11.2°C 97% Calm Calm -- 30.23 in1023.7 mb - 0.00 in0.0 mm 0.00 in0.0 mm
03:00 AM 53.1°F11.7°C 52.3°F11.3°C 97% Calm Calm -- 30.23 in1023.7 mb - 0.00 in0.0 mm 0.00 in0.0 mm
02:45 AM 53.3°F11.8°C 52.5°F11.4°C 97% Calm Calm -- 30.23 in1023.7 mb - 0.00 in0.0 mm 0.00 in0.0 mm
02:30 AM 53.4°F11.9°C 52.6°F11.4°C 97% Calm Calm -- 30.23 in1023.7 mb - 0.00 in0.0 mm 0.00 in0.0 mm
02:15 AM 53.7°F12.1°C 52.9°F11.6°C 97% Calm Calm -- 30.23 in1023.7 mb - 0.00 in0.0 mm 0.00 in0.0 mm
02:00 AM 53.9°F12.2°C 53.1°F11.7°C 97% Calm Calm -- 30.23 in1023.7 mb - 0.00 in0.0 mm 0.00 in0.0 mm
01:45 AM 54.1°F12.3°C 53.3°F11.8°C 97% Calm Calm -- 30.23 in1023.7 mb - 0.00 in0.0 mm 0.00 in0.0 mm
01:30 AM 54.2°F12.3°C 53.4°F11.9°C 97% Calm Calm -- 30.23 in1023.7 mb - 0.00 in0.0 mm 0.00 in0.0 mm
01:15 AM 54.5°F12.5°C 53.7°F12.1°C 97% Calm Calm -- 30.23 in1023.7 mb - 0.00 in0.0 mm 0.00 in0.0 mm
01:00 AM 54.9°F12.7°C 54.0°F12.2°C 97% Calm Calm -- 30.23 in1023.7 mb - 0.00 in0.0 mm 0.00 in0.0 mm
12:45 AM 55.0°F12.8°C 54.2°F12.3°C 97% Calm Calm -- 30.23 in1023.7 mb - 0.00 in0.0 mm 0.00 in0.0 mm
12:30 AM 55.3°F12.9°C 54.5°F12.5°C 97% Calm Calm -- 30.23 in1023.7 mb - 0.00 in0.0 mm 0.00 in0.0 mm
12:15 AM 55.7°F13.2°C 54.9°F12.7°C 97% Calm Calm -- 30.24 in1024.0 mb - 0.00 in0.0 mm 0.00 in0.0 mm
12:00 AM 56.0°F13.3°C 54.9°F12.7°C 96% Calm Calm -- 30.24 in1024.0 mb - 0.00 in0.0 mm 0.00 in0.0 mm